Time;durP1;ratioP1;P1;durP2;ratioP2;P2;SDS_P1;SDS_P2;PMS_P1;PMS_P2;Temp;Humidity;BMP_temperature;BMP_pressure;BME280_temperature;BME280_humidity;BME280_pressure;Samples;Min_cycle;Max_cycle;Signal;HPM_P1;HPM_P2
2022/11/27 00:01:14;;;;;;;8.48;4.70;;;;;;;;;;5029190;28;20045;-73
2022/11/27 00:03:41;;;;;;;7.60;4.57;;;;;;;;;;5033153;28;20087;-74
2022/11/27 00:06:11;;;;;;;10.38;4.55;;;;;;;;;;5045890;28;20052;-77
2022/11/27 00:08:37;;;;;;;9.35;4.38;;;;;;;;;;5042713;28;20083;-69
2022/11/27 00:11:08;;;;;;;8.52;4.75;;;;;;;;;;5035294;28;20051;-73
2022/11/27 00:13:35;;;;;;;9.02;4.53;;;;;;;;;;5038309;28;20052;-70
2022/11/27 00:16:01;;;;;;;8.88;4.57;;;;;;;;;;5010888;28;20048;-70
2022/11/27 00:18:28;;;;;;;8.95;4.57;;;;;;;;;;5030411;28;20052;-72
2022/11/27 00:20:54;;;;;;;10.02;4.35;;;;;;;;;;5032681;28;20049;-67
2022/11/27 00:23:20;;;;;;;7.57;3.85;;;;;;;;;;5039880;28;20061;-73
2022/11/27 00:25:50;;;;;;;8.68;4.70;;;;;;;;;;5041065;28;20053;-68
2022/11/27 00:28:17;;;;;;;7.55;3.97;;;;;;;;;;5036353;28;20106;-67
2022/11/27 00:30:43;;;;;;;9.95;4.15;;;;;;;;;;5043531;28;21502;-76
2022/11/27 00:33:09;;;;;;;9.82;4.25;;;;;;;;;;5030327;28;23192;-69
2022/11/27 00:35:36;;;;;;;11.23;4.03;;;;;;;;;;5040468;28;20061;-75
2022/11/27 00:38:02;;;;;;;8.88;3.70;;;;;;;;;;5033502;28;20057;-70
2022/11/27 00:40:28;;;;;;;9.35;4.35;;;;;;;;;;5039056;28;20061;-74
2022/11/27 00:42:54;;;;;;;7.32;3.95;;;;;;;;;;5026084;28;20048;-67
2022/11/27 00:45:20;;;;;;;7.90;4.00;;;;;;;;;;5012265;28;20060;-74
2022/11/27 00:47:46;;;;;;;7.03;3.90;;;;;;;;;;5028298;28;20053;-67
2022/11/27 00:50:12;;;;;;;9.75;3.92;;;;;;;;;;5038658;28;20049;-74
2022/11/27 00:52:38;;;;;;;8.82;3.92;;;;;;;;;;5045003;28;20266;-79
2022/11/27 00:55:04;;;;;;;9.57;4.47;;;;;;;;;;5042547;28;20060;-71
2022/11/27 00:57:30;;;;;;;8.85;3.58;;;;;;;;;;5021928;28;20053;-77
2022/11/27 00:59:56;;;;;;;7.72;3.22;;;;;;;;;;5011859;28;20052;-70
2022/11/27 01:02:22;;;;;;;6.38;3.53;;;;;;;;;;5028370;28;20348;-71
2022/11/27 01:04:48;;;;;;;7.35;3.42;;;;;;;;;;5043934;28;20482;-70
2022/11/27 01:07:15;;;;;;;6.25;3.35;;;;;;;;;;5034264;28;20053;-69
2022/11/27 01:09:40;;;;;;;8.95;3.53;;;;;;;;;;5036884;28;20080;-77
2022/11/27 01:12:06;;;;;;;9.10;3.40;;;;;;;;;;5038616;28;20734;-73
2022/11/27 01:14:33;;;;;;;7.53;3.33;;;;;;;;;;5033181;28;20103;-78
2022/11/27 01:16:59;;;;;;;8.98;3.47;;;;;;;;;;5033465;28;20502;-74
2022/11/27 01:19:25;;;;;;;5.50;3.03;;;;;;;;;;5022870;28;20138;-74
2022/11/27 01:21:51;;;;;;;5.88;3.13;;;;;;;;;;5033671;28;20041;-74
2022/11/27 01:24:17;;;;;;;6.25;3.55;;;;;;;;;;5027448;28;20334;-72
2022/11/27 01:26:44;;;;;;;9.18;3.33;;;;;;;;;;5030948;28;21212;-76
2022/11/27 01:29:10;;;;;;;6.15;3.25;;;;;;;;;;5034413;28;20301;-76
2022/11/27 01:31:36;;;;;;;6.60;3.15;;;;;;;;;;5028095;28;20040;-73
2022/11/27 01:34:05;;;;;;;7.10;3.10;;;;;;;;;;5036234;28;20090;-69
2022/11/27 01:36:32;;;;;;;6.93;2.95;;;;;;;;;;5030833;28;20195;-80
2022/11/27 01:38:58;;;;;;;5.28;3.00;;;;;;;;;;5030283;28;20123;-75
2022/11/27 01:41:36;;;;;;;10.18;3.30;;;;;;;;;;5026379;28;20062;-69
2022/11/27 01:44:23;;;;;;;5.90;3.17;;;;;;;;;;5030972;28;20049;-71
2022/11/27 01:46:55;;;;;;;5.97;3.15;;;;;;;;;;5011679;28;20053;-72
2022/11/27 01:49:24;;;;;;;8.88;2.60;;;;;;;;;;5028333;28;20041;-72
2022/11/27 01:51:56;;;;;;;5.00;2.63;;;;;;;;;;5035892;28;20138;-70
2022/11/27 01:54:25;;;;;;;7.97;2.83;;;;;;;;;;5034740;28;20077;-74
2022/11/27 01:56:57;;;;;;;4.15;2.35;;;;;;;;;;5032168;28;20053;-73
2022/11/27 01:59:24;;;;;;;5.10;2.75;;;;;;;;;;5031125;28;20084;-70
2022/11/27 02:01:50;;;;;;;5.35;2.33;;;;;;;;;;5033445;28;20056;-67
2022/11/27 02:04:17;;;;;;;6.55;2.30;;;;;;;;;;5022667;28;21314;-72
2022/11/27 02:06:43;;;;;;;5.68;2.83;;;;;;;;;;5007972;28;20052;-75
2022/11/27 02:09:09;;;;;;;5.50;2.47;;;;;;;;;;5002584;28;20079;-68
2022/11/27 02:11:56;;;;;;;6.80;2.83;;;;;;;;;;5033279;28;20083;-75
2022/11/27 02:14:54;;;;;;;6.88;2.45;;;;;;;;;;5032474;28;20055;-66
2022/11/27 02:17:29;;;;;;;3.88;2.40;;;;;;;;;;4976833;28;20053;-73
2022/11/27 02:20:04;;;;;;;;;;;;;;;;;;4976211;28;20124;-72
2022/11/27 02:22:55;;;;;;;5.30;2.40;;;;;;;;;;4978235;28;19925;-70
2022/11/27 02:25:42;;;;;;;6.18;2.70;;;;;;;;;;4982705;28;20419;-68
2022/11/27 02:28:39;;;;;;;4.35;2.42;;;;;;;;;;4962488;28;20126;-69
2022/11/27 02:31:13;;;;;;;5.50;2.50;;;;;;;;;;4963823;28;20133;-72
2022/11/27 02:33:45;;;;;;;4.30;2.47;;;;;;;;;;4978344;28;20491;-71
2022/11/27 02:36:15;;;;;;;4.80;2.72;;;;;;;;;;4980773;28;20360;-72
2022/11/27 02:38:46;;;;;;;6.78;2.38;;;;;;;;;;4972616;28;20053;-70
2022/11/27 02:41:24;;;;;;;7.50;2.50;;;;;;;;;;4984896;28;20082;-79
2022/11/27 02:43:52;;;;;;;4.97;2.60;;;;;;;;;;4983175;28;20152;-70
2022/11/27 02:46:19;;;;;;;5.85;2.60;;;;;;;;;;4972545;28;20112;-70
2022/11/27 02:48:50;;;;;;;4.68;2.40;;;;;;;;;;4977640;28;20057;-67
2022/11/27 02:51:21;;;;;;;6.88;3.20;;;;;;;;;;4983337;28;20125;-70
2022/11/27 02:54:01;;;;;;;4.75;2.60;;;;;;;;;;5009842;28;20710;-70
2022/11/27 02:56:30;;;;;;;4.60;2.60;;;;;;;;;;5041746;28;20614;-70
2022/11/27 02:59:00;;;;;;;5.60;2.78;;;;;;;;;;5014585;28;20679;-71
2022/11/27 03:01:31;;;;;;;9.23;3.05;;;;;;;;;;5006115;28;20802;-67
2022/11/27 03:03:58;;;;;;;5.25;2.70;;;;;;;;;;5030304;28;20049;-69
2022/11/27 03:06:33;;;;;;;6.00;2.97;;;;;;;;;;5017110;28;20049;-68
2022/11/27 03:09:06;;;;;;;5.55;2.78;;;;;;;;;;5022176;28;20059;-68
2022/11/27 03:11:32;;;;;;;10.63;3.30;;;;;;;;;;5036584;28;20060;-75
2022/11/27 03:14:03;;;;;;;6.57;3.00;;;;;;;;;;5035424;28;20077;-67
2022/11/27 03:16:38;;;;;;;5.03;2.70;;;;;;;;;;5031919;28;20051;-71
2022/11/27 03:19:29;;;;;;;5.88;2.97;;;;;;;;;;5026942;28;20219;-71
2022/11/27 03:21:57;;;;;;;9.90;3.45;;;;;;;;;;5035591;28;20110;-69
2022/11/27 03:24:23;;;;;;;6.78;3.10;;;;;;;;;;5034818;28;20041;-73
2022/11/27 03:26:50;;;;;;;7.72;2.90;;;;;;;;;;5020376;28;20070;-68
2022/11/27 03:29:20;;;;;;;6.93;2.95;;;;;;;;;;4988153;28;20557;-71
2022/11/27 03:31:47;;;;;;;6.43;3.10;;;;;;;;;;5020076;28;20060;-70
2022/11/27 03:34:15;;;;;;;4.85;3.13;;;;;;;;;;5011764;28;20045;-75
2022/11/27 03:36:41;;;;;;;6.32;2.85;;;;;;;;;;5031647;28;20059;-77
2022/11/27 03:39:08;;;;;;;8.18;3.17;;;;;;;;;;5027759;28;20049;-68
2022/11/27 03:41:45;;;;;;;4.55;2.65;;;;;;;;;;5030595;28;20037;-73
2022/11/27 03:44:17;;;;;;;5.47;2.67;;;;;;;;;;5017245;28;20049;-77
2022/11/27 03:47:09;;;;;;;6.28;2.65;;;;;;;;;;5031360;28;20053;-70
2022/11/27 03:49:38;;;;;;;7.32;2.72;;;;;;;;;;5025416;28;20110;-73
2022/11/27 03:52:19;;;;;;;4.80;2.60;;;;;;;;;;5007725;28;20140;-68
2022/11/27 03:55:20;;;;;;;5.95;2.60;;;;;;;;;;5010032;28;20152;-73
2022/11/27 03:57:57;;;;;;;4.63;2.63;;;;;;;;;;5033414;28;20072;-75
2022/11/27 04:00:23;;;;;;;6.53;2.72;;;;;;;;;;5024135;28;20817;-72
2022/11/27 04:02:51;;;;;;;6.82;3.03;;;;;;;;;;5027594;28;20272;-70
2022/11/27 04:05:18;;;;;;;5.18;2.75;;;;;;;;;;5029030;28;20273;-67
2022/11/27 04:07:45;;;;;;;5.00;2.65;;;;;;;;;;5020986;28;20098;-76
2022/11/27 04:10:11;;;;;;;4.85;2.50;;;;;;;;;;5020341;28;20053;-69
2022/11/27 04:12:37;;;;;;;4.65;2.65;;;;;;;;;;5004387;28;20190;-76
2022/11/27 04:15:05;;;;;;;6.43;2.50;;;;;;;;;;5007723;28;20501;-72
2022/11/27 04:17:31;;;;;;;8.35;2.30;;;;;;;;;;5009055;28;20056;-73
2022/11/27 04:19:58;;;;;;;7.95;2.80;;;;;;;;;;5001156;28;20068;-68
2022/11/27 04:22:24;;;;;;;7.68;2.60;;;;;;;;;;5036633;28;20128;-73
2022/11/27 04:24:50;;;;;;;2.97;2.03;;;;;;;;;;5038757;28;20053;-72
2022/11/27 04:27:16;;;;;;;5.40;2.30;;;;;;;;;;5039177;28;20060;-74
2022/11/27 04:29:42;;;;;;;2.88;1.98;;;;;;;;;;5031620;28;20055;-75
2022/11/27 04:32:08;;;;;;;3.80;2.20;;;;;;;;;;5031623;28;20051;-75
2022/11/27 04:34:34;;;;;;;4.45;2.08;;;;;;;;;;5037396;28;20064;-69
2022/11/27 04:37:00;;;;;;;5.65;2.28;;;;;;;;;;5006639;28;20045;-68
2022/11/27 04:39:26;;;;;;;4.10;1.83;;;;;;;;;;5026292;28;20053;-75
2022/11/27 04:41:52;;;;;;;4.00;1.98;;;;;;;;;;5037686;28;20047;-68
2022/11/27 04:44:18;;;;;;;5.95;2.00;;;;;;;;;;5036067;28;20053;-68
2022/11/27 04:46:44;;;;;;;4.00;2.20;;;;;;;;;;5036009;28;20049;-68
2022/11/27 04:49:10;;;;;;;5.88;2.03;;;;;;;;;;5035790;28;20057;-77
2022/11/27 04:51:36;;;;;;;2.72;1.83;;;;;;;;;;5035501;28;20076;-69
2022/11/27 04:54:02;;;;;;;4.07;2.13;;;;;;;;;;5035099;28;20067;-73
2022/11/27 04:56:28;;;;;;;4.07;2.30;;;;;;;;;;5015675;28;20049;-70
2022/11/27 04:58:54;;;;;;;6.85;2.10;;;;;;;;;;5037220;28;20842;-72
2022/11/27 05:01:20;;;;;;;3.80;2.03;;;;;;;;;;5032644;28;20157;-75
2022/11/27 05:03:47;;;;;;;5.93;2.17;;;;;;;;;;5037967;28;20060;-68
2022/11/27 05:06:13;;;;;;;5.35;2.38;;;;;;;;;;5035866;28;20472;-70
2022/11/27 05:08:39;;;;;;;11.52;2.42;;;;;;;;;;5027567;28;20063;-69
2022/11/27 05:11:13;;;;;;;4.60;2.17;;;;;;;;;;5036200;28;20041;-75
2022/11/27 05:13:40;;;;;;;4.78;2.17;;;;;;;;;;5032980;28;20074;-68
2022/11/27 05:16:06;;;;;;;5.05;2.10;;;;;;;;;;5008638;28;20095;-70
2022/11/27 05:18:33;;;;;;;6.85;2.13;;;;;;;;;;5007542;28;20049;-70
2022/11/27 05:21:04;;;;;;;5.18;1.90;;;;;;;;;;5029383;28;20053;-67
2022/11/27 05:23:31;;;;;;;3.83;2.08;;;;;;;;;;5035941;28;20141;-74
2022/11/27 05:25:57;;;;;;;3.60;2.05;;;;;;;;;;5035579;28;20136;-69
2022/11/27 05:28:24;;;;;;;4.05;1.70;;;;;;;;;;5028330;28;20076;-68
2022/11/27 05:30:50;;;;;;;4.45;2.08;;;;;;;;;;5019131;28;20151;-72
2022/11/27 05:33:17;;;;;;;4.80;2.13;;;;;;;;;;5015273;28;20061;-75
2022/11/27 05:35:44;;;;;;;3.33;1.90;;;;;;;;;;5037974;28;20131;-66
2022/11/27 05:38:11;;;;;;;3.58;1.63;;;;;;;;;;5033689;28;20049;-68
2022/11/27 05:40:38;;;;;;;2.53;1.58;;;;;;;;;;5031309;28;20049;-74
2022/11/27 05:43:04;;;;;;;4.65;1.67;;;;;;;;;;5032799;28;20044;-74
2022/11/27 05:45:29;;;;;;;2.58;1.52;;;;;;;;;;5032786;28;20099;-66
2022/11/27 05:47:55;;;;;;;5.10;2.00;;;;;;;;;;5032512;28;20153;-72
2022/11/27 05:50:21;;;;;;;4.35;1.73;;;;;;;;;;5027731;28;20226;-68
2022/11/27 05:52:47;;;;;;;2.78;1.70;;;;;;;;;;5022382;28;20099;-69
2022/11/27 05:55:13;;;;;;;4.00;2.03;;;;;;;;;;5031066;28;20052;-74
2022/11/27 05:57:39;;;;;;;5.22;1.70;;;;;;;;;;5031822;28;20481;-73
2022/11/27 06:00:06;;;;;;;2.50;1.60;;;;;;;;;;5033946;28;20048;-77
2022/11/27 06:02:32;;;;;;;3.70;1.77;;;;;;;;;;5026170;28;20547;-72
2022/11/27 06:04:58;;;;;;;3.03;1.77;;;;;;;;;;5037900;28;20457;-69
2022/11/27 06:07:24;;;;;;;2.85;1.60;;;;;;;;;;5031661;28;20049;-70
2022/11/27 06:09:50;;;;;;;5.10;1.83;;;;;;;;;;5019425;28;20045;-73
2022/11/27 06:12:16;;;;;;;4.80;2.03;;;;;;;;;;5031832;28;20374;-73
2022/11/27 06:14:42;;;;;;;2.70;1.65;;;;;;;;;;5033758;28;20663;-74
2022/11/27 06:17:08;;;;;;;3.75;2.05;;;;;;;;;;5031570;28;20059;-78
2022/11/27 06:19:34;;;;;;;3.15;1.85;;;;;;;;;;5025457;28;20060;-67
2022/11/27 06:22:00;;;;;;;3.17;1.90;;;;;;;;;;5035489;28;20049;-71
2022/11/27 06:24:26;;;;;;;5.75;1.90;;;;;;;;;;5035048;28;20051;-67
2022/11/27 06:26:52;;;;;;;5.85;2.20;;;;;;;;;;5025528;28;20473;-69
2022/11/27 06:29:17;;;;;;;3.83;2.00;;;;;;;;;;5012790;28;20061;-69
2022/11/27 06:31:43;;;;;;;3.85;2.00;;;;;;;;;;5027057;28;20052;-73
2022/11/27 06:34:10;;;;;;;4.75;2.08;;;;;;;;;;5033021;28;20053;-74
2022/11/27 06:36:39;;;;;;;4.78;2.10;;;;;;;;;;5031117;28;20437;-72
2022/11/27 06:39:06;;;;;;;3.33;1.80;;;;;;;;;;5027838;28;20410;-72
2022/11/27 06:41:33;;;;;;;5.35;2.22;;;;;;;;;;5013856;28;20060;-71
2022/11/27 06:44:00;;;;;;;4.63;2.30;;;;;;;;;;5033819;28;20159;-69
2022/11/27 06:46:27;;;;;;;5.00;1.73;;;;;;;;;;5023074;28;20499;-75
2022/11/27 06:48:53;;;;;;;4.95;2.05;;;;;;;;;;5026521;28;20094;-73
2022/11/27 06:51:26;;;;;;;3.47;1.67;;;;;;;;;;5030915;28;20053;-70
2022/11/27 06:53:52;;;;;;;4.40;2.03;;;;;;;;;;5037990;28;20061;-73
2022/11/27 06:56:22;;;;;;;3.88;1.90;;;;;;;;;;4984492;28;20078;-70
2022/11/27 06:58:55;;;;;;;4.30;1.85;;;;;;;;;;5020491;28;20119;-68
2022/11/27 07:01:23;;;;;;;2.42;1.80;;;;;;;;;;5037292;28;20060;-76
2022/11/27 07:03:49;;;;;;;3.60;1.83;;;;;;;;;;5037303;28;20440;-79
2022/11/27 07:06:19;;;;;;;5.63;2.00;;;;;;;;;;5033643;28;20053;-69
2022/11/27 07:08:45;;;;;;;2.17;1.63;;;;;;;;;;5018734;28;20083;-69
2022/11/27 07:11:14;;;;;;;3.08;1.83;;;;;;;;;;5028707;28;20521;-75
2022/11/27 07:13:40;;;;;;;3.38;1.67;;;;;;;;;;5031199;28;20497;-71
2022/11/27 07:16:08;;;;;;;3.17;1.80;;;;;;;;;;5031478;28;20596;-73
2022/11/27 07:18:36;;;;;;;3.15;1.70;;;;;;;;;;5027624;28;20052;-67
2022/11/27 07:21:03;;;;;;;3.45;1.67;;;;;;;;;;5025483;28;20150;-69
2022/11/27 07:23:29;;;;;;;3.13;1.60;;;;;;;;;;5024665;28;20052;-75
2022/11/27 07:25:56;;;;;;;3.13;1.65;;;;;;;;;;5027698;28;20063;-68
2022/11/27 07:28:22;;;;;;;2.38;1.55;;;;;;;;;;5032108;28;20630;-72
2022/11/27 07:30:55;;;;;;;5.07;1.52;;;;;;;;;;5021770;28;20084;-71
2022/11/27 07:33:21;;;;;;;3.97;2.00;;;;;;;;;;5029565;28;20492;-68
2022/11/27 07:35:48;;;;;;;2.78;1.50;;;;;;;;;;5029352;28;20593;-72
2022/11/27 07:38:14;;;;;;;3.58;1.70;;;;;;;;;;5025842;28;20052;-69
2022/11/27 07:40:40;;;;;;;4.03;1.80;;;;;;;;;;5021892;28;20071;-70
2022/11/27 07:43:05;;;;;;;3.50;1.60;;;;;;;;;;5031249;28;20066;-75
2022/11/27 07:45:31;;;;;;;3.00;1.77;;;;;;;;;;5028248;28;20944;-67
2022/11/27 07:47:57;;;;;;;3.08;1.55;;;;;;;;;;5030847;28;20049;-77
2022/11/27 07:50:23;;;;;;;5.65;1.65;;;;;;;;;;5028794;28;20068;-68
2022/11/27 07:52:49;;;;;;;6.88;1.75;;;;;;;;;;5034578;28;20046;-71
2022/11/27 07:55:15;;;;;;;9.35;1.80;;;;;;;;;;5034802;28;20061;-71
2022/11/27 07:57:41;;;;;;;4.55;2.10;;;;;;;;;;5014497;28;20663;-69
2022/11/27 08:00:08;;;;;;;4.63;2.53;;;;;;;;;;5027418;28;20049;-76
2022/11/27 08:02:34;;;;;;;9.30;2.13;;;;;;;;;;5027144;28;20059;-74
2022/11/27 08:05:00;;;;;;;6.60;2.17;;;;;;;;;;5034733;28;20153;-72
2022/11/27 08:07:27;;;;;;;11.07;3.22;;;;;;;;;;5033524;28;20637;-70
2022/11/27 08:09:54;;;;;;;10.02;2.13;;;;;;;;;;5028332;28;20049;-70
2022/11/27 08:12:21;;;;;;;7.28;2.28;;;;;;;;;;5032115;28;20102;-71
2022/11/27 08:14:47;;;;;;;6.97;2.13;;;;;;;;;;5039065;28;20591;-73
2022/11/27 08:17:13;;;;;;;3.47;2.10;;;;;;;;;;5029789;28;20045;-70
2022/11/27 08:19:40;;;;;;;8.38;2.15;;;;;;;;;;5027556;28;20586;-74
2022/11/27 08:22:13;;;;;;;7.90;2.10;;;;;;;;;;5028568;28;20057;-73
2022/11/27 08:24:41;;;;;;;4.50;2.40;;;;;;;;;;5035259;28;20621;-75
2022/11/27 08:27:10;;;;;;;6.78;2.40;;;;;;;;;;5033557;28;20055;-75
2022/11/27 08:29:37;;;;;;;4.90;2.03;;;;;;;;;;5025494;28;20686;-75
2022/11/27 08:32:03;;;;;;;6.22;2.33;;;;;;;;;;5031735;28;20044;-74
2022/11/27 08:34:29;;;;;;;7.45;2.28;;;;;;;;;;5030352;28;20741;-71
2022/11/27 08:36:55;;;;;;;4.60;2.03;;;;;;;;;;5035389;28;20055;-72
2022/11/27 08:39:21;;;;;;;7.78;2.45;;;;;;;;;;5026693;28;20045;-72
2022/11/27 08:41:47;;;;;;;8.77;3.28;;;;;;;;;;5031848;28;20052;-74
2022/11/27 08:44:13;;;;;;;7.10;2.00;;;;;;;;;;5035062;28;20095;-72
2022/11/27 08:46:39;;;;;;;5.45;2.13;;;;;;;;;;5033431;28;20518;-76
2022/11/27 08:49:05;;;;;;;4.80;1.83;;;;;;;;;;5022513;28;20062;-68
2022/11/27 08:51:30;;;;;;;3.30;1.90;;;;;;;;;;5028928;28;20473;-76
2022/11/27 08:53:56;;;;;;;6.70;1.75;;;;;;;;;;5028391;28;21232;-72
2022/11/27 08:56:24;;;;;;;4.95;2.10;;;;;;;;;;5016976;28;20048;-71
2022/11/27 08:58:50;;;;;;;3.70;1.80;;;;;;;;;;5021737;28;20056;-77
2022/11/27 09:01:17;;;;;;;5.93;2.10;;;;;;;;;;5032893;28;20049;-71
2022/11/27 09:03:44;;;;;;;3.80;1.80;;;;;;;;;;5029686;28;20671;-77
2022/11/27 09:06:13;;;;;;;3.47;1.90;;;;;;;;;;5028512;28;20056;-70
2022/11/27 09:08:41;;;;;;;2.65;1.73;;;;;;;;;;5026009;28;20052;-76
2022/11/27 09:11:07;;;;;;;3.85;1.73;;;;;;;;;;5010558;28;20730;-71
2022/11/27 09:13:35;;;;;;;4.60;2.10;;;;;;;;;;5015641;28;20858;-74
2022/11/27 09:16:06;;;;;;;8.40;1.77;;;;;;;;;;5034229;28;20049;-71
2022/11/27 09:18:32;;;;;;;3.85;1.83;;;;;;;;;;5025429;28;20068;-72
2022/11/27 09:21:04;;;;;;;6.18;2.05;;;;;;;;;;5030800;28;20060;-73
2022/11/27 09:23:31;;;;;;;10.27;2.40;;;;;;;;;;5032242;28;20105;-74
2022/11/27 09:26:01;;;;;;;7.18;3.13;;;;;;;;;;5037277;28;20068;-71
2022/11/27 09:28:28;;;;;;;4.32;2.00;;;;;;;;;;5032742;28;20110;-74
2022/11/27 09:30:56;;;;;;;6.45;1.98;;;;;;;;;;5033282;28;20054;-71
2022/11/27 09:33:23;;;;;;;4.78;1.92;;;;;;;;;;5028604;28;20049;-72
2022/11/27 09:35:49;;;;;;;7.50;2.20;;;;;;;;;;5039069;28;20078;-76
2022/11/27 09:38:16;;;;;;;6.68;2.25;;;;;;;;;;5036352;28;20048;-73
2022/11/27 09:41:01;;;;;;;5.45;2.35;;;;;;;;;;5041464;28;20079;-74
2022/11/27 09:43:31;;;;;;;5.95;2.20;;;;;;;;;;5031657;28;20172;-72
2022/11/27 09:46:06;;;;;;;4.68;2.50;;;;;;;;;;5035913;28;20545;-72
2022/11/27 09:48:38;;;;;;;5.60;2.50;;;;;;;;;;5018127;28;20057;-71
2022/11/27 09:51:10;;;;;;;6.20;2.65;;;;;;;;;;5028217;28;20108;-73
2022/11/27 09:53:53;;;;;;;5.75;2.33;;;;;;;;;;5036927;28;20252;-71
2022/11/27 09:56:19;;;;;;;4.22;2.33;;;;;;;;;;5038930;28;20067;-71
2022/11/27 09:58:56;;;;;;;6.40;2.60;;;;;;;;;;5032181;28;20057;-74
2022/11/27 10:01:31;;;;;;;6.00;2.40;;;;;;;;;;5036372;28;21022;-75
2022/11/27 10:03:57;;;;;;;7.00;2.03;;;;;;;;;;5044094;28;20052;-70
2022/11/27 10:06:43;;;;;;;3.40;2.10;;;;;;;;;;5060132;28;20108;-71
2022/11/27 10:09:21;;;;;;;4.97;2.30;;;;;;;;;;5049355;28;20048;-74
2022/11/27 10:12:18;;;;;;;3.88;1.75;;;;;;;;;;5041574;28;20655;-73
2022/11/27 10:14:54;;;;;;;3.38;1.98;;;;;;;;;;5034455;28;20112;-72
2022/11/27 10:17:24;;;;;;;3.83;2.20;;;;;;;;;;5045020;28;20045;-75
2022/11/27 10:20:11;;;;;;;6.28;2.10;;;;;;;;;;5034972;28;20071;-81
2022/11/27 10:22:52;;;;;;;6.22;2.08;;;;;;;;;;5035184;28;20478;-72
2022/11/27 10:25:25;;;;;;;4.85;2.20;;;;;;;;;;5032713;28;20057;-73
2022/11/27 10:28:19;;;;;;;7.25;2.10;;;;;;;;;;5032658;28;20219;-81
2022/11/27 10:30:51;;;;;;;6.20;2.17;;;;;;;;;;5008062;28;20540;-74
2022/11/27 10:33:41;;;;;;;8.77;2.13;;;;;;;;;;5027775;28;20466;-76
2022/11/27 10:36:14;;;;;;;4.75;2.30;;;;;;;;;;5027047;28;20532;-68
2022/11/27 10:38:42;;;;;;;10.25;4.15;;;;;;;;;;5024122;28;20060;-73
2022/11/27 10:41:15;;;;;;;6.90;2.03;;;;;;;;;;5021909;28;20048;-74
2022/11/27 10:43:41;;;;;;;5.80;2.40;;;;;;;;;;5027607;28;20143;-74
2022/11/27 10:46:15;;;;;;;2.88;2.13;;;;;;;;;;5027197;28;20571;-73
2022/11/27 10:48:41;;;;;;;4.38;2.10;;;;;;;;;;5020531;28;20052;-73
2022/11/27 10:51:17;;;;;;;6.18;2.15;;;;;;;;;;5014172;28;20048;-72
2022/11/27 10:53:47;;;;;;;5.57;1.90;;;;;;;;;;5026148;28;21006;-73
2022/11/27 10:56:29;;;;;;;4.82;2.25;;;;;;;;;;5025862;28;20048;-70
2022/11/27 10:59:12;;;;;;;6.15;2.28;;;;;;;;;;5024762;28;20053;-71
2022/11/27 11:01:47;;;;;;;6.72;2.13;;;;;;;;;;5027686;28;20049;-66
2022/11/27 11:04:18;;;;;;;5.97;1.90;;;;;;;;;;5013961;28;20098;-74
2022/11/27 11:06:47;;;;;;;7.47;2.25;;;;;;;;;;5024434;28;20501;-73
2022/11/27 11:09:21;;;;;;;3.72;2.20;;;;;;;;;;5027784;28;20048;-73
2022/11/27 11:11:48;;;;;;;;;;;;;;;;;;5034826;28;20805;-73
2022/11/27 11:14:22;;;;;;;5.25;2.00;;;;;;;;;;5033891;28;20011;-70
2022/11/27 11:16:50;;;;;;;4.57;2.42;;;;;;;;;;5034946;28;20060;-70
2022/11/27 11:19:34;;;;;;;5.72;2.33;;;;;;;;;;5030634;28;20049;-68
2022/11/27 11:22:11;;;;;;;3.80;2.17;;;;;;;;;;5029993;28;20570;-70
2022/11/27 11:24:40;;;;;;;4.50;2.22;;;;;;;;;;5027974;28;20524;-70
2022/11/27 11:27:29;;;;;;;5.78;2.60;;;;;;;;;;5035519;28;21065;-71
2022/11/27 11:30:20;;;;;;;8.45;2.63;;;;;;;;;;5037143;28;20053;-69
2022/11/27 11:32:48;;;;;;;7.15;2.50;;;;;;;;;;5029235;28;20295;-68
2022/11/27 11:35:24;;;;;;;6.47;2.35;;;;;;;;;;5037131;28;20318;-73
2022/11/27 11:37:51;;;;;;;4.53;2.20;;;;;;;;;;5032773;28;20054;-69
2022/11/27 11:40:23;;;;;;;4.65;2.05;;;;;;;;;;5029482;28;20140;-69
2022/11/27 11:42:59;;;;;;;4.03;2.22;;;;;;;;;;5034782;28;20050;-74
2022/11/27 11:45:27;;;;;;;3.80;1.83;;;;;;;;;;5015824;28;20053;-69
2022/11/27 11:48:01;;;;;;;4.90;2.30;;;;;;;;;;5035008;28;20491;-74
2022/11/27 11:50:54;;;;;;;5.55;1.83;;;;;;;;;;5029112;28;20298;-69
2022/11/27 11:53:47;;;;;;;3.13;1.75;;;;;;;;;;5038660;28;20127;-71
2022/11/27 11:56:26;;;;;;;6.63;2.28;;;;;;;;;;5032854;28;20140;-73
2022/11/27 11:59:18;;;;;;;5.53;2.30;;;;;;;;;;5031856;28;20061;-71
2022/11/27 12:01:55;;;;;;;3.63;2.20;;;;;;;;;;5041091;28;20051;-75
2022/11/27 12:04:46;;;;;;;5.07;2.58;;;;;;;;;;5026879;28;20297;-73
2022/11/27 12:07:24;;;;;;;7.95;3.80;;;;;;;;;;5015590;28;20056;-72
2022/11/27 12:10:02;;;;;;;9.63;3.90;;;;;;;;;;5012478;28;20053;-75
2022/11/27 12:12:49;;;;;;;8.75;4.22;;;;;;;;;;5035242;28;20055;-73
2022/11/27 12:15:34;;;;;;;15.45;4.00;;;;;;;;;;5032578;28;21027;-73
2022/11/27 12:18:41;;;;;;;14.38;4.65;;;;;;;;;;5036297;28;20163;-70
2022/11/27 12:21:14;;;;;;;9.80;4.20;;;;;;;;;;5032292;28;20075;-70
2022/11/27 12:23:59;;;;;;;8.13;3.72;;;;;;;;;;5034551;28;20131;-71
2022/11/27 12:27:01;;;;;;;8.23;2.58;;;;;;;;;;5028386;28;20060;-73
2022/11/27 12:29:35;;;;;;;12.30;5.22;;;;;;;;;;5029038;28;20292;-69
2022/11/27 12:32:26;;;;;;;10.32;3.88;;;;;;;;;;5036006;28;20053;-70
2022/11/27 12:35:01;;;;;;;6.70;3.80;;;;;;;;;;5034831;28;20092;-71
2022/11/27 12:37:46;;;;;;;6.97;3.35;;;;;;;;;;5037840;28;21634;-78
2022/11/27 12:40:27;;;;;;;6.82;3.30;;;;;;;;;;5036701;28;20117;-76
2022/11/27 12:43:23;;;;;;;5.63;2.75;;;;;;;;;;5029957;28;20048;-76
2022/11/27 12:46:10;;;;;;;8.25;2.65;;;;;;;;;;5037423;28;20304;-71
2022/11/27 12:48:52;;;;;;;4.53;1.80;;;;;;;;;;5033143;28;21045;-73
2022/11/27 12:51:25;;;;;;;4.85;3.25;;;;;;;;;;5025131;28;20107;-70
2022/11/27 12:53:55;;;;;;;5.97;2.40;;;;;;;;;;5027527;28;20087;-73
2022/11/27 12:56:43;;;;;;;6.40;2.40;;;;;;;;;;5040891;28;20147;-71
2022/11/27 12:59:29;;;;;;;5.80;2.47;;;;;;;;;;5031961;28;20065;-70
2022/11/27 13:02:06;;;;;;;5.15;2.70;;;;;;;;;;5033153;28;21098;-75
2022/11/27 13:04:45;;;;;;;6.72;2.60;;;;;;;;;;5004722;28;20049;-72
2022/11/27 13:07:21;;;;;;;6.80;2.17;;;;;;;;;;5026707;28;20045;-70
2022/11/27 13:10:11;;;;;;;6.65;2.45;;;;;;;;;;5033027;28;20057;-69
2022/11/27 13:13:06;;;;;;;5.07;2.15;;;;;;;;;;5030007;28;20079;-69
2022/11/27 13:15:59;;;;;;;4.28;2.30;;;;;;;;;;5039189;28;20106;-71
2022/11/27 13:18:34;;;;;;;4.65;2.13;;;;;;;;;;5038518;28;20068;-78
2022/11/27 13:21:04;;;;;;;7.22;2.78;;;;;;;;;;5038604;28;20398;-68
2022/11/27 13:23:34;;;;;;;7.75;3.55;;;;;;;;;;5010938;28;20175;-67
2022/11/27 13:26:04;;;;;;;6.90;4.07;;;;;;;;;;5026267;28;20037;-69
2022/11/27 13:28:40;;;;;;;11.18;4.70;;;;;;;;;;5034621;28;20874;-69
2022/11/27 13:31:08;;;;;;;7.20;3.60;;;;;;;;;;5027751;28;20057;-74
2022/11/27 13:33:44;;;;;;;10.30;4.00;;;;;;;;;;5031543;28;20037;-69
2022/11/27 13:36:20;;;;;;;6.82;3.50;;;;;;;;;;5012643;28;20135;-74
2022/11/27 13:38:55;;;;;;;6.30;3.08;;;;;;;;;;5031804;28;20108;-77
2022/11/27 13:42:01;;;;;;;6.85;2.90;;;;;;;;;;5041084;28;20061;-73
2022/11/27 13:44:27;;;;;;;;;;;;;;;;;;5038007;28;20431;-69
2022/11/27 13:46:58;;;;;;;3.50;2.08;;;;;;;;;;5038437;28;19929;-77
2022/11/27 13:49:29;;;;;;;10.35;3.13;;;;;;;;;;5032651;28;20082;-75
2022/11/27 13:52:16;;;;;;;5.95;2.80;;;;;;;;;;5030934;28;20205;-67
2022/11/27 13:55:02;;;;;;;4.47;2.10;;;;;;;;;;5035959;28;20048;-73
2022/11/27 13:57:29;;;;;;;3.72;2.05;;;;;;;;;;5033707;28;20049;-74
2022/11/27 14:00:06;;;;;;;3.90;2.10;;;;;;;;;;5015846;28;20129;-76
2022/11/27 14:02:58;;;;;;;5.18;1.90;;;;;;;;;;5036628;28;20047;-71
2022/11/27 14:05:37;;;;;;;5.00;2.08;;;;;;;;;;5029927;28;20123;-79
2022/11/27 14:08:47;;;;;;;6.18;1.92;;;;;;;;;;5018330;28;21333;-76
2022/11/27 14:11:13;;;;;;;3.35;1.77;;;;;;;;;;5019103;28;20052;-76
2022/11/27 14:13:50;;;;;;;4.85;2.00;;;;;;;;;;5036412;28;20045;-74
2022/11/27 14:16:25;;;;;;;7.70;2.35;;;;;;;;;;5037246;28;20399;-72
2022/11/27 14:18:57;;;;;;;3.65;2.00;;;;;;;;;;5033167;28;20087;-73
2022/11/27 14:21:44;;;;;;;5.25;2.00;;;;;;;;;;5020631;28;20538;-73
2022/11/27 14:24:25;;;;;;;4.70;2.10;;;;;;;;;;5001872;28;20037;-73
2022/11/27 14:26:53;;;;;;;4.68;2.30;;;;;;;;;;5028905;28;21711;-69
2022/11/27 14:29:20;;;;;;;4.38;2.03;;;;;;;;;;5034238;28;20049;-71
2022/11/27 14:31:56;;;;;;;5.28;2.03;;;;;;;;;;5039937;28;20358;-69
2022/11/27 14:34:33;;;;;;;7.22;2.13;;;;;;;;;;5034901;28;20063;-71
2022/11/27 14:37:00;;;;;;;7.10;1.98;;;;;;;;;;5037365;28;20055;-74
2022/11/27 14:39:36;;;;;;;5.78;2.80;;;;;;;;;;5032390;28;20106;-73
2022/11/27 14:42:06;;;;;;;4.72;2.15;;;;;;;;;;5036653;28;20048;-69
2022/11/27 14:44:33;;;;;;;5.75;2.70;;;;;;;;;;5030227;28;20051;-72
2022/11/27 14:47:21;;;;;;;10.45;3.67;;;;;;;;;;5040161;28;20184;-74
2022/11/27 14:49:54;;;;;;;6.65;3.13;;;;;;;;;;5035878;28;20052;-75
2022/11/27 14:52:20;;;;;;;4.35;2.22;;;;;;;;;;5042480;28;20056;-70
2022/11/27 14:54:48;;;;;;;7.38;2.40;;;;;;;;;;5038202;28;20356;-70
2022/11/27 14:57:22;;;;;;;7.15;2.65;;;;;;;;;;5033372;28;20778;-71
2022/11/27 14:59:58;;;;;;;4.20;2.30;;;;;;;;;;5033917;28;20109;-74
2022/11/27 15:02:25;;;;;;;4.80;2.30;;;;;;;;;;5036401;28;20049;-73
2022/11/27 15:05:02;;;;;;;4.40;2.22;;;;;;;;;;5022083;28;20079;-73
2022/11/27 15:07:29;;;;;;;8.32;2.50;;;;;;;;;;5035123;28;20505;-72
2022/11/27 15:09:57;;;;;;;4.28;2.13;;;;;;;;;;5013601;28;20770;-70